createdAt,value
2023-05-15T00:01:04.254Z,97842.22
2023-05-15T00:06:06.350Z,97839.91
2023-05-15T00:11:08.271Z,97837.56
2023-05-15T00:16:10.175Z,97834.06
2023-05-15T00:21:12.093Z,97828.22
2023-05-15T00:26:15.853Z,97820.44
2023-05-15T00:31:18.178Z,97813.41
2023-05-15T00:36:21.790Z,97813.03
2023-05-15T00:41:28.836Z,97797.03
2023-05-15T00:46:32.736Z,97787.72
2023-05-15T00:51:35.359Z,97784.59
2023-05-15T00:56:37.591Z,97783.81
2023-05-15T01:01:39.687Z,97786.13
2023-05-15T01:06:41.538Z,97780.59
2023-05-15T01:11:46.928Z,97776.66
2023-05-15T01:16:48.857Z,97778.16
2023-05-15T01:21:53.833Z,97779.78
2023-05-15T01:27:17.079Z,97782.19
2023-05-15T01:32:26.484Z,97777.53
2023-05-15T01:37:32.140Z,97777.47
2023-05-15T01:42:35.120Z,97772.78
2023-05-15T01:47:44.002Z,97766.53
2023-05-15T01:52:51.432Z,97767.34
2023-05-15T01:57:55.705Z,97754.13
2023-05-15T02:02:58.513Z,97747.19
2023-05-15T02:08:04.257Z,97742.50
2023-05-15T02:13:09.200Z,97743.69
2023-05-15T02:18:11.381Z,97764.72
2023-05-15T02:23:13.291Z,97743.69
2023-05-15T02:28:32.039Z,97731.59
2023-05-15T02:33:58.039Z,97730.06
2023-05-15T02:39:00.806Z,97720.31
2023-05-15T02:44:03.491Z,97721.50
2023-05-15T02:49:05.685Z,97717.97
2023-05-15T02:54:09.686Z,97708.25
2023-05-15T02:59:11.657Z,97721.09
2023-05-15T03:04:16.507Z,97702.41
2023-05-15T03:09:18.361Z,97699.28
2023-05-15T03:14:20.288Z,97694.59
2023-05-15T03:19:22.103Z,97690.72
2023-05-15T03:24:23.933Z,97693.44
2023-05-15T03:29:25.880Z,97693.44
2023-05-15T03:34:27.814Z,97698.50
2023-05-15T03:39:29.647Z,97704.34
2023-05-15T03:44:31.521Z,97695.78
2023-05-15T03:49:33.376Z,97694.22
2023-05-15T03:54:35.930Z,97670.81
2023-05-15T03:59:37.843Z,97681.72
2023-05-15T04:04:39.788Z,97689.91
2023-05-15T04:09:41.631Z,97687.94
2023-05-15T04:14:43.490Z,97678.19
2023-05-15T04:19:47.983Z,97670.44
2023-05-15T04:24:49.801Z,97671.63
2023-05-15T04:29:51.617Z,97665.75
2023-05-15T04:34:53.875Z,97669.28
2023-05-15T04:39:55.852Z,97666.97
2023-05-15T04:44:57.725Z,97664.25
2023-05-15T04:49:59.616Z,97657.63
2023-05-15T04:55:01.601Z,97659.16
2023-05-15T05:00:10.300Z,97646.72
2023-05-15T05:05:14.734Z,97652.16
2023-05-15T05:10:16.788Z,97645.16
2023-05-15T05:15:18.762Z,97650.59
2023-05-15T05:20:20.704Z,97645.53
2023-05-15T05:25:22.756Z,97653.72
2023-05-15T05:30:24.773Z,97638.56
2023-05-15T05:35:27.921Z,97626.47
2023-05-15T05:40:29.880Z,97626.47
2023-05-15T05:45:31.729Z,97621.41
2023-05-15T05:50:33.585Z,97619.44
2023-05-15T05:55:35.608Z,97616.31
2023-05-15T06:00:37.489Z,97610.47
2023-05-15T06:05:39.315Z,97608.53
2023-05-15T06:10:42.482Z,97600.75
2023-05-15T06:15:46.007Z,97603.88
2023-05-15T06:20:47.850Z,97593.75
2023-05-15T06:25:49.716Z,97590.63
2023-05-15T06:30:51.637Z,97589.06
2023-05-15T06:35:53.483Z,97584.38
2023-05-15T06:40:55.316Z,97583.56
2023-05-15T06:45:57.219Z,97589.34
2023-05-15T06:50:59.088Z,97583.47
2023-05-15T06:56:00.938Z,97579.53
2023-05-15T07:01:07.181Z,97575.63
2023-05-15T07:06:09.174Z,97571.59
2023-05-15T07:11:11.046Z,97566.84
2023-05-15T07:16:13.105Z,97565.19
2023-05-15T07:21:14.989Z,97556.50
2023-05-15T07:26:23.672Z,97553.25
2023-05-15T07:31:31.541Z,97566.78
2023-05-15T07:36:33.395Z,97558.88
2023-05-15T07:41:35.922Z,97557.28
2023-05-15T07:46:39.106Z,97563.00
2023-05-15T07:51:41.133Z,97561.28
2023-05-15T07:56:43.108Z,97549.44
2023-05-15T08:01:44.981Z,97543.53
2023-05-15T08:06:46.868Z,97541.16
2023-05-15T08:11:48.734Z,97533.47
2023-05-15T08:16:51.908Z,97537.63
2023-05-15T08:21:53.746Z,97532.88
2023-05-15T08:26:57.188Z,97538.53
2023-05-15T08:31:59.242Z,97527.47
2023-05-15T08:37:01.097Z,97533.66
2023-05-15T08:42:08.727Z,97536.41
2023-05-15T08:47:11.127Z,97531.25
2023-05-15T08:52:12.986Z,97531.22
2023-05-15T08:57:16.297Z,97524.88
2023-05-15T09:02:18.942Z,97525.59
2023-05-15T09:07:21.080Z,97521.56
2023-05-15T09:12:25.499Z,97519.81
2023-05-15T09:17:27.434Z,97524.84
2023-05-15T09:22:34.356Z,97519.72
2023-05-15T09:27:43.833Z,97511.09
2023-05-15T09:32:48.397Z,97518.97
2023-05-15T09:37:59.792Z,97517.69
2023-05-15T09:43:01.774Z,97520.28
2023-05-15T09:48:08.308Z,97508.63
2023-05-15T09:53:12.890Z,97503.16
2023-05-15T09:58:18.825Z,97504.25
2023-05-15T10:03:21.106Z,97513.66
2023-05-15T10:08:28.364Z,97500.34
2023-05-15T10:13:32.190Z,97510.50
2023-05-15T10:18:36.311Z,97502.44
2023-05-15T10:23:42.279Z,97504.81
2023-05-15T10:28:46.442Z,97494.38
2023-05-15T10:33:48.760Z,97488.53
2023-05-15T10:38:51.552Z,97490.16
2023-05-15T10:43:54.045Z,97492.03
2023-05-15T10:48:56.373Z,97486.28
2023-05-15T10:54:00.051Z,97488.88
2023-05-15T10:59:08.209Z,97475.22
2023-05-15T11:04:15.336Z,97464.72
2023-05-15T11:09:37.496Z,97456.81
2023-05-15T11:14:42.727Z,97444.03
2023-05-15T11:19:50.925Z,97440.88
2023-05-15T11:24:58.037Z,97432.50
2023-05-15T11:30:10.998Z,97432.28
2023-05-15T11:35:13.032Z,97455.19
2023-05-15T11:40:19.955Z,97472.03
2023-05-15T11:45:22.853Z,97457.50
2023-05-15T11:50:25.487Z,97466.59
2023-05-15T11:55:29.311Z,97463.91
2023-05-15T12:00:31.437Z,97484.19
2023-05-15T12:05:33.411Z,97475.66
2023-05-15T12:10:41.003Z,97453.63
2023-05-15T12:15:45.301Z,97437.63
2023-05-15T12:20:47.241Z,97448.31
2023-05-15T12:25:51.679Z,97441.38
2023-05-15T12:30:54.380Z,97444.03
2023-05-15T12:36:01.104Z,97431.38
2023-05-15T12:41:03.593Z,97428.16
2023-05-15T12:46:05.612Z,97424.81
2023-05-15T12:51:08.578Z,97416.47
2023-05-15T12:56:15.472Z,97409.13
2023-05-15T13:01:17.724Z,97411.09
2023-05-15T13:06:23.585Z,97403.38
2023-05-15T13:11:34.225Z,97397.44
2023-05-15T13:16:36.838Z,97389.63
2023-05-15T13:21:38.957Z,97389.09
2023-05-15T13:26:40.763Z,97381.50
2023-05-15T13:31:43.492Z,97354.97
2023-05-15T13:36:45.721Z,97359.78
2023-05-15T13:41:47.539Z,97371.56
2023-05-15T13:46:49.384Z,97380.63
2023-05-15T13:51:51.386Z,97370.13
2023-05-15T13:56:53.469Z,97348.19
2023-05-15T14:01:55.396Z,97364.50
2023-05-15T14:06:57.712Z,97366.34
2023-05-15T14:11:59.732Z,97376.94
2023-05-15T14:17:01.632Z,97335.78
2023-05-15T14:22:03.629Z,97367.81
2023-05-15T14:27:05.913Z,97355.13
2023-05-15T14:32:07.882Z,97363.31
2023-05-15T14:37:10.096Z,97356.97
2023-05-15T14:42:12.358Z,97375.88
2023-05-15T14:47:14.357Z,97368.69
2023-05-15T14:52:16.207Z,97378.53
2023-05-15T14:57:20.463Z,97372.16
2023-05-15T15:02:22.290Z,97369.84
2023-05-15T15:07:29.206Z,97364.34
2023-05-15T15:12:31.229Z,97384.53
2023-05-15T15:17:33.194Z,97378.69
2023-05-15T15:22:35.594Z,97372.53
2023-05-15T15:27:37.787Z,97370.03
2023-05-15T15:32:40.286Z,97365.91
2023-05-15T15:37:42.219Z,97380.78
2023-05-15T15:42:44.125Z,97385.53
2023-05-15T15:47:46.267Z,97378.06
2023-05-15T15:52:48.194Z,97379.50
2023-05-15T15:57:50.007Z,97416.63
2023-05-15T16:02:51.959Z,97410.34
2023-05-15T16:07:53.886Z,97415.22
2023-05-15T16:12:55.830Z,97428.34
2023-05-15T16:17:57.859Z,97430.63
2023-05-15T16:22:59.718Z,97440.19
2023-05-15T16:28:01.542Z,97434.59
2023-05-15T16:33:03.632Z,97428.16
2023-05-15T16:38:05.965Z,97419.59
2023-05-15T16:43:07.862Z,97421.47
2023-05-15T16:48:09.761Z,97430.91
2023-05-15T16:53:11.763Z,97440.44
2023-05-15T16:58:15.797Z,97441.88
2023-05-15T17:03:19.072Z,97455.13
2023-05-15T17:08:20.999Z,97470.75
2023-05-15T17:13:22.977Z,97466.47
2023-05-15T17:18:24.784Z,97463.78
2023-05-15T17:23:26.704Z,97462.34
2023-05-15T17:28:28.934Z,97458.06
2023-05-15T17:33:30.898Z,97466.28
2023-05-15T17:38:32.788Z,97464.81
2023-05-15T17:43:34.764Z,97472.78
2023-05-15T17:48:36.823Z,97488.91
2023-05-15T17:53:38.822Z,97486.16
2023-05-15T17:58:40.732Z,97493.13
2023-05-15T18:03:42.718Z,97494.72
2023-05-15T18:08:45.651Z,97504.06
2023-05-15T18:13:47.686Z,97516.25
2023-05-15T18:18:52.565Z,97522.38
2023-05-15T18:23:55.458Z,97528.13
2023-05-15T18:28:58.772Z,97542.09
2023-05-15T18:34:02.118Z,97533.63
2023-05-15T18:39:04.247Z,97534.22
2023-05-15T18:44:06.316Z,97532.81
2023-05-15T18:49:10.728Z,97525.31
2023-05-15T18:54:12.692Z,97532.84
2023-05-15T18:59:14.518Z,97534.25
2023-05-15T19:04:16.446Z,97548.72
2023-05-15T19:09:18.446Z,97554.59
2023-05-15T19:14:20.318Z,97557.19
2023-05-15T19:19:22.256Z,97555.47
2023-05-15T19:24:25.012Z,97570.41
2023-05-15T19:29:26.875Z,97582.88
2023-05-15T19:34:29.622Z,97578.41
2023-05-15T19:39:33.685Z,97579.50
2023-05-15T19:44:35.520Z,97583.38
2023-05-15T19:49:37.604Z,97591.78
2023-05-15T19:54:39.521Z,97591.19
2023-05-15T19:59:41.421Z,97588.41
2023-05-15T20:04:43.347Z,97586.66
2023-05-15T20:09:45.175Z,97599.28
2023-05-15T20:14:50.325Z,97602.59
2023-05-15T20:19:53.955Z,97609.69
2023-05-15T20:24:55.871Z,97609.63
2023-05-15T20:29:57.730Z,97613.00
2023-05-15T20:35:00.663Z,97619.63
2023-05-15T20:40:05.318Z,97609.50
2023-05-15T20:45:09.038Z,97616.22
2023-05-15T20:50:12.196Z,97604.00
2023-05-15T20:55:16.389Z,97600.50
2023-05-15T21:00:18.758Z,97596.13
2023-05-15T21:05:20.903Z,97590.63
2023-05-15T21:10:23.289Z,97588.31
2023-05-15T21:15:25.294Z,97588.31
2023-05-15T21:20:27.467Z,97590.88
2023-05-15T21:25:29.569Z,97602.78
2023-05-15T21:30:31.734Z,97588.41
2023-05-15T21:35:33.784Z,97606.44
2023-05-15T21:40:36.739Z,97614.00
2023-05-15T21:45:38.561Z,97621.53
2023-05-15T21:50:40.429Z,97619.22
2023-05-15T21:55:42.283Z,97618.59
2023-05-15T22:00:44.157Z,97620.19
2023-05-15T22:05:46.716Z,97619.47
2023-05-15T22:10:49.045Z,97612.81
2023-05-15T22:15:51.318Z,97637.03
2023-05-15T22:20:54.641Z,97637.13
2023-05-15T22:25:56.512Z,97639.88
2023-05-15T22:30:58.331Z,97637.53
2023-05-15T22:36:00.246Z,97643.38
2023-05-15T22:41:02.075Z,97649.28
2023-05-15T22:46:04.037Z,97663.44
2023-05-15T22:51:05.961Z,97666.97
2023-05-15T22:56:08.436Z,97672.06
2023-05-15T23:01:10.401Z,97672.88
2023-05-15T23:06:18.396Z,97662.38
2023-05-15T23:11:21.447Z,97669.41
2023-05-15T23:16:24.741Z,97664.34
2023-05-15T23:21:26.867Z,97674.16
2023-05-15T23:26:28.692Z,97677.31
2023-05-15T23:31:30.675Z,97680.88
2023-05-15T23:36:32.637Z,97688.69
2023-05-15T23:41:34.472Z,97700.41
2023-05-15T23:46:37.998Z,97686.38
2023-05-15T23:51:39.861Z,97677.44
2023-05-15T23:56:41.675Z,97692.25
